Time;durP1;ratioP1;P1;durP2;ratioP2;P2;SDS_P1;SDS_P2;PMS_P1;PMS_P2;Temp;Humidity;BMP_temperature;BMP_pressure;BME280_temperature;BME280_humidity;BME280_pressure;Samples;Min_cycle;Max_cycle;Signal;HPM_P1;HPM_P2
2023/02/24 00:01:25;;;;;;;10.13;2.87;;;2.40;99.90;;;;;;5014104;28;20036;-76
2023/02/24 00:03:56;;;;;;;9.23;2.85;;;2.30;99.90;;;;;;5011351;28;20041;-76
2023/02/24 00:06:34;;;;;;;7.63;2.20;;;2.30;99.90;;;;;;4997578;28;20051;-76
2023/02/24 00:09:06;;;;;;;8.53;2.17;;;2.20;99.90;;;;;;5007763;28;20484;-76
2023/02/24 00:11:45;;;;;;;14.18;1.90;;;2.20;99.90;;;;;;5031001;28;20041;-76
2023/02/24 00:14:15;;;;;;;11.17;2.10;;;2.20;99.90;;;;;;5029912;28;20057;-76
2023/02/24 00:16:43;;;;;;;8.93;2.53;;;2.10;99.90;;;;;;5032720;28;20041;-75
2023/02/24 00:19:12;;;;;;;10.67;3.10;;;2.10;99.90;;;;;;5026836;28;20431;-75
2023/02/24 00:21:39;;;;;;;9.13;2.87;;;2.00;99.90;;;;;;5016244;28;20030;-76
2023/02/24 00:24:07;;;;;;;9.88;2.80;;;2.00;99.90;;;;;;5030624;28;20048;-76
2023/02/24 00:26:33;;;;;;;9.87;2.50;;;2.00;99.90;;;;;;5030675;28;20029;-75
2023/02/24 00:29:02;;;;;;;9.70;2.30;;;2.00;99.90;;;;;;5026205;28;20044;-76
2023/02/24 00:31:29;;;;;;;10.63;2.70;;;1.90;99.90;;;;;;4996139;28;20044;-75
2023/02/24 00:33:58;;;;;;;9.10;2.13;;;1.90;99.90;;;;;;4995826;28;20779;-75
2023/02/24 00:36:26;;;;;;;11.13;1.77;;;1.90;99.90;;;;;;5013425;28;20043;-75
2023/02/24 00:38:56;;;;;;;8.65;1.38;;;1.90;99.90;;;;;;5027633;28;20713;-76
2023/02/24 00:41:28;;;;;;;12.37;1.73;;;1.80;99.90;;;;;;5014159;28;20033;-75
2023/02/24 00:44:04;;;;;;;7.00;1.48;;;1.80;99.90;;;;;;5009622;28;20396;-76
2023/02/24 00:46:40;;;;;;;13.00;1.97;;;1.80;99.90;;;;;;5012307;28;20033;-76
2023/02/24 00:49:16;;;;;;;8.30;1.83;;;1.80;99.90;;;;;;4995811;28;20051;-76
2023/02/24 00:51:45;;;;;;;6.17;1.27;;;1.80;99.90;;;;;;5027094;28;20392;-76
2023/02/24 00:54:13;;;;;;;4.90;1.27;;;1.70;99.90;;;;;;4993770;28;20041;-76
2023/02/24 00:56:45;;;;;;;5.67;1.10;;;1.70;99.90;;;;;;5026770;28;20415;-76
2023/02/24 00:59:13;;;;;;;6.83;1.63;;;1.70;99.90;;;;;;5025058;28;20041;-76
2023/02/24 01:01:41;;;;;;;7.40;1.93;;;1.70;99.90;;;;;;5027464;28;20025;-76
2023/02/24 01:04:10;;;;;;;8.50;2.33;;;1.60;99.90;;;;;;5011613;28;20040;-76
2023/02/24 01:06:49;;;;;;;9.60;1.50;;;1.60;99.90;;;;;;5028535;28;21022;-76
2023/02/24 01:09:18;;;;;;;8.60;1.57;;;1.60;99.90;;;;;;5007858;28;20044;-75
2023/02/24 01:14:34;;;;;;;8.57;1.40;;;1.50;99.90;;;;;;5028070;28;20049;-75
2023/02/24 01:17:02;;;;;;;5.37;1.30;;;1.50;99.90;;;;;;5043243;28;20025;-76
2023/02/24 01:19:31;;;;;;;9.57;1.63;;;1.40;99.90;;;;;;5009628;28;20044;-75
2023/02/24 01:22:05;;;;;;;8.73;1.53;;;1.40;99.90;;;;;;4997901;28;20040;-75
2023/02/24 01:24:37;;;;;;;8.37;1.70;;;1.40;99.90;;;;;;5027031;28;20044;-75
2023/02/24 01:27:04;;;;;;;6.77;1.47;;;1.40;99.90;;;;;;5013138;28;20045;-75
2023/02/24 01:29:31;;;;;;;7.33;1.87;;;1.30;99.90;;;;;;5027514;28;20374;-76
2023/02/24 01:31:58;;;;;;;8.10;1.47;;;1.30;99.90;;;;;;5012544;28;20435;-76
2023/02/24 01:34:26;;;;;;;6.37;1.30;;;1.20;99.90;;;;;;5027270;28;20361;-76
2023/02/24 01:36:53;;;;;;;8.30;1.67;;;1.20;99.90;;;;;;4996986;28;20032;-76
2023/02/24 01:39:20;;;;;;;4.77;0.93;;;1.20;99.90;;;;;;5009989;28;20087;-76
2023/02/24 01:41:49;;;;;;;8.13;1.60;;;1.20;99.90;;;;;;5009524;28;20060;-76
2023/02/24 01:44:21;;;;;;;7.50;1.53;;;1.20;99.90;;;;;;4993514;28;20041;-76
2023/02/24 01:46:50;;;;;;;4.28;1.33;;;1.10;99.90;;;;;;5029336;28;20035;-76
2023/02/24 01:49:23;;;;;;;10.40;1.80;;;1.10;99.90;;;;;;5008370;28;20047;-76
2023/02/24 01:52:05;;;;;;;10.53;1.83;;;1.10;99.90;;;;;;5012457;28;20036;-76
2023/02/24 01:54:41;;;;;;;18.00;2.33;;;1.10;99.90;;;;;;5008894;28;20428;-76
2023/02/24 01:57:15;;;;;;;7.80;1.10;;;1.00;99.90;;;;;;5028057;28;20396;-76
2023/02/24 01:59:44;;;;;;;9.77;1.77;;;1.00;99.90;;;;;;5008728;28;20029;-75
2023/02/24 02:02:11;;;;;;;7.03;1.57;;;1.00;99.90;;;;;;5012103;28;20041;-76
2023/02/24 02:04:53;;;;;;;7.77;1.70;;;0.90;99.90;;;;;;5026436;28;20039;-76
2023/02/24 02:07:22;;;;;;;7.07;2.00;;;0.90;99.90;;;;;;5011065;28;20407;-76
2023/02/24 02:09:49;;;;;;;11.47;1.63;;;0.90;99.90;;;;;;4992403;28;20036;-76
2023/02/24 02:12:16;;;;;;;14.50;2.17;;;0.90;99.90;;;;;;5012647;28;20040;-76
2023/02/24 02:14:46;;;;;;;8.13;1.10;;;0.90;99.90;;;;;;5010522;28;20049;-76
2023/02/24 02:17:22;;;;;;;12.10;2.03;;;0.80;99.90;;;;;;5011425;28;20400;-76
2023/02/24 02:19:55;;;;;;;10.37;2.00;;;0.80;99.90;;;;;;5008766;28;20059;-76
2023/02/24 02:22:31;;;;;;;10.40;1.80;;;0.80;99.90;;;;;;5012952;28;20373;-76
2023/02/24 02:25:12;;;;;;;11.97;2.10;;;0.80;99.90;;;;;;5028316;28;20049;-77
2023/02/24 02:28:01;;;;;;;5.53;1.47;;;0.80;99.90;;;;;;4995955;28;20052;-77
2023/02/24 02:30:42;;;;;;;8.03;1.30;;;0.80;99.90;;;;;;5029966;28;20420;-77
2023/02/24 02:33:20;;;;;;;7.70;1.20;;;0.70;99.90;;;;;;4993830;28;20029;-77
2023/02/24 02:35:49;;;;;;;9.53;1.27;;;0.70;99.90;;;;;;5029519;28;20590;-77
2023/02/24 02:38:33;;;;;;;6.93;1.73;;;0.70;99.90;;;;;;5027552;28;20047;-76
2023/02/24 02:41:20;;;;;;;10.85;1.67;;;0.70;99.90;;;;;;4996577;28;20502;-77
2023/02/24 02:43:51;;;;;;;11.23;1.70;;;0.70;99.90;;;;;;5026649;28;20041;-76
2023/02/24 02:46:37;;;;;;;7.03;1.33;;;0.70;99.90;;;;;;5028978;28;20036;-77
2023/02/24 02:49:08;;;;;;;8.50;1.53;;;0.60;99.90;;;;;;5009313;28;20415;-76
2023/02/24 02:51:45;;;;;;;13.33;3.43;;;0.60;99.90;;;;;;5026843;28;20400;-77
2023/02/24 02:54:26;;;;;;;9.50;1.70;;;0.60;99.90;;;;;;5028291;28;20041;-77
2023/02/24 02:57:08;;;;;;;12.13;2.23;;;0.60;99.90;;;;;;5033509;28;20041;-77
2023/02/24 02:59:40;;;;;;;8.73;1.55;;;0.60;99.90;;;;;;5011556;28;20037;-77
2023/02/24 03:02:12;;;;;;;8.97;2.20;;;0.60;99.90;;;;;;5032467;28;20037;-77
2023/02/24 03:04:43;;;;;;;6.47;1.57;;;0.60;99.90;;;;;;4995121;28;20060;-77
2023/02/24 03:07:15;;;;;;;9.93;1.60;;;0.60;99.90;;;;;;5015839;28;20045;-77
2023/02/24 03:09:45;;;;;;;7.33;1.13;;;0.60;99.90;;;;;;5009823;28;20487;-77
2023/02/24 03:12:15;;;;;;;4.50;1.20;;;0.60;99.90;;;;;;5031302;28;20287;-77
2023/02/24 03:14:50;;;;;;;4.07;1.17;;;0.60;99.90;;;;;;4996813;28;20508;-76
2023/02/24 03:17:22;;;;;;;12.60;1.63;;;0.50;99.90;;;;;;5012813;28;20033;-77
2023/02/24 03:19:59;;;;;;;6.60;1.80;;;0.50;99.90;;;;;;4994760;28;20051;-76
2023/02/24 03:22:36;;;;;;;8.17;1.10;;;0.50;99.90;;;;;;5012426;28;20033;-76
2023/02/24 03:25:04;;;;;;;7.53;1.10;;;0.50;99.90;;;;;;4999803;28;20040;-76
2023/02/24 03:27:48;;;;;;;;;;;0.50;99.90;;;;;;5012699;28;20473;-76
2023/02/24 03:30:49;;;;;;;6.40;1.43;;;0.50;99.90;;;;;;5029848;28;20260;-76
2023/02/24 03:33:28;;;;;;;8.23;1.17;;;0.50;99.90;;;;;;4992936;28;20120;-77
2023/02/24 03:36:00;;;;;;;8.67;1.53;;;0.50;99.90;;;;;;5030180;28;20033;-76
2023/02/24 03:38:30;;;;;;;8.90;1.73;;;0.50;99.90;;;;;;5027091;28;20047;-76
2023/02/24 03:40:57;;;;;;;9.17;1.67;;;0.50;99.90;;;;;;4997435;28;20033;-76
2023/02/24 03:43:31;;;;;;;15.27;2.13;;;0.50;99.90;;;;;;5012310;28;20049;-76
2023/02/24 03:46:00;;;;;;;7.97;1.40;;;0.50;99.90;;;;;;5030918;28;20048;-76
2023/02/24 03:48:27;;;;;;;8.27;1.30;;;0.50;99.90;;;;;;5010382;28;20025;-76
2023/02/24 03:50:55;;;;;;;10.17;1.50;;;0.50;99.90;;;;;;5015080;28;20041;-76
2023/02/24 03:53:48;;;;;;;5.27;1.10;;;0.50;99.90;;;;;;5016180;28;20041;-76
2023/02/24 03:56:33;;;;;;;6.43;1.48;;;0.50;99.90;;;;;;5031075;28;20025;-76
2023/02/24 03:59:13;;;;;;;5.90;1.30;;;0.60;99.90;;;;;;5009748;28;20041;-76
2023/02/24 04:01:40;;;;;;;4.63;1.67;;;0.60;99.90;;;;;;5017020;28;20033;-76
2023/02/24 04:04:27;;;;;;;6.37;1.23;;;0.60;99.90;;;;;;4994980;28;20049;-76
2023/02/24 04:07:28;;;;;;;8.47;1.63;;;0.60;99.90;;;;;;5016949;28;20052;-76
2023/02/24 04:10:18;;;;;;;7.80;1.53;;;0.60;99.90;;;;;;4992741;28;20044;-76
2023/02/24 04:12:53;;;;;;;10.80;2.50;;;0.60;99.90;;;;;;5028833;28;20047;-76
2023/02/24 04:15:19;;;;;;;7.10;1.43;;;0.70;99.90;;;;;;5015596;28;20053;-76
2023/02/24 04:17:49;;;;;;;8.47;1.90;;;0.60;99.90;;;;;;5029718;28;20041;-76
2023/02/24 04:20:20;;;;;;;10.40;2.40;;;0.70;99.90;;;;;;5014088;28;20028;-76
2023/02/24 04:23:10;;;;;;;5.10;1.87;;;0.70;99.90;;;;;;5027687;28;20048;-76
2023/02/24 04:25:41;;;;;;;6.57;2.67;;;0.80;99.90;;;;;;5032127;28;20071;-76
2023/02/24 04:28:09;;;;;;;10.07;2.30;;;0.80;99.90;;;;;;5029413;28;20036;-77
2023/02/24 04:30:47;;;;;;;5.63;1.93;;;0.90;99.90;;;;;;5019969;28;20620;-76
2023/02/24 04:33:13;;;;;;;10.90;2.33;;;1.00;99.90;;;;;;4999475;28;20037;-77
2023/02/24 04:35:44;;;;;;;9.93;2.30;;;1.00;99.90;;;;;;5014856;28;20044;-77
2023/02/24 04:38:10;;;;;;;7.07;1.80;;;1.00;99.90;;;;;;5011657;28;20041;-76
2023/02/24 04:40:39;;;;;;;14.27;2.37;;;1.10;99.90;;;;;;5014998;28;20041;-77
2023/02/24 04:43:06;;;;;;;5.77;1.87;;;1.10;99.90;;;;;;5011518;28;20033;-77
2023/02/24 04:45:33;;;;;;;5.53;2.13;;;1.10;99.90;;;;;;5028921;28;20041;-76
2023/02/24 04:48:02;;;;;;;7.63;1.77;;;1.10;99.90;;;;;;5028094;28;20033;-77
2023/02/24 04:50:34;;;;;;;8.67;2.97;;;1.10;99.90;;;;;;5011630;28;20510;-77
2023/02/24 04:53:05;;;;;;;9.52;2.83;;;1.20;99.90;;;;;;4993702;28;20133;-78
2023/02/24 04:55:38;;;;;;;11.63;2.80;;;1.20;99.90;;;;;;5012611;28;20040;-77
2023/02/24 04:58:06;;;;;;;7.80;1.90;;;1.20;99.90;;;;;;4994938;28;20041;-77
2023/02/24 05:00:34;;;;;;;11.37;2.13;;;1.20;99.90;;;;;;5011519;28;20527;-78
2023/02/24 05:03:03;;;;;;;8.10;1.70;;;1.30;99.90;;;;;;5010695;28;20025;-78
2023/02/24 05:05:32;;;;;;;11.10;2.17;;;1.30;99.90;;;;;;5014621;28;20037;-77
2023/02/24 05:08:01;;;;;;;9.53;3.13;;;1.30;99.90;;;;;;5009306;28;20688;-78
2023/02/24 05:10:37;;;;;;;6.93;2.50;;;1.40;99.90;;;;;;5013244;28;20044;-78
2023/02/24 05:13:05;;;;;;;5.47;1.37;;;1.40;99.90;;;;;;4996753;28;20044;-77
2023/02/24 05:15:32;;;;;;;5.43;2.13;;;1.40;99.90;;;;;;5029847;28;22321;-77
2023/02/24 05:18:06;;;;;;;6.83;1.93;;;1.40;99.90;;;;;;5012381;28;20041;-78
2023/02/24 05:23:34;;;;;;;9.37;2.40;;;1.50;99.90;;;;;;5012988;28;20048;-78
2023/02/24 05:26:07;;;;;;;8.97;2.17;;;1.50;99.90;;;;;;5030985;28;20047;-77
2023/02/24 05:28:39;;;;;;;17.43;2.90;;;1.60;99.90;;;;;;5025141;28;20048;-77
2023/02/24 05:31:15;;;;;;;13.52;3.10;;;1.60;99.90;;;;;;5030816;28;20780;-77
2023/02/24 05:33:43;;;;;;;10.40;2.93;;;1.70;99.90;;;;;;5011294;28;20025;-78
2023/02/24 05:36:16;;;;;;;16.13;4.90;;;1.70;99.90;;;;;;5012157;28;20041;-77
2023/02/24 05:38:44;;;;;;;11.43;3.70;;;1.70;99.90;;;;;;5008302;28;20041;-78
2023/02/24 05:41:17;;;;;;;18.33;4.47;;;1.80;99.90;;;;;;5009598;28;20050;-77
2023/02/24 05:43:47;;;;;;;15.93;3.80;;;1.80;99.90;;;;;;5028802;28;20037;-76
2023/02/24 05:46:14;;;;;;;16.27;3.00;;;1.80;99.90;;;;;;5012191;28;20035;-77
2023/02/24 05:48:42;;;;;;;11.77;3.47;;;1.80;99.90;;;;;;5025417;28;20380;-77
2023/02/24 05:51:11;;;;;;;11.83;3.37;;;1.90;99.90;;;;;;5027931;28;20047;-77
2023/02/24 05:53:40;;;;;;;12.07;2.70;;;1.90;99.90;;;;;;5009644;28;20037;-77
2023/02/24 05:56:08;;;;;;;10.00;2.43;;;1.90;99.90;;;;;;5027058;28;20036;-77
2023/02/24 05:58:38;;;;;;;12.00;2.83;;;1.90;99.90;;;;;;5023406;28;20044;-77
2023/02/24 06:01:15;;;;;;;12.77;3.13;;;1.90;99.90;;;;;;5013137;28;20032;-77
2023/02/24 06:03:46;;;;;;;15.17;3.20;;;1.90;99.90;;;;;;5008602;28;20392;-76
2023/02/24 06:06:14;;;;;;;11.70;2.57;;;1.90;99.90;;;;;;5011783;28;20067;-77
2023/02/24 06:08:41;;;;;;;11.23;3.37;;;1.90;99.90;;;;;;5027001;28;20506;-77
2023/02/24 06:11:12;;;;;;;10.70;2.40;;;1.90;99.90;;;;;;5029010;28;20033;-76
2023/02/24 06:13:38;;;;;;;13.10;2.83;;;1.90;99.90;;;;;;4991325;28;20045;-77
2023/02/24 06:16:05;;;;;;;6.03;2.53;;;1.90;99.90;;;;;;5027171;28;20056;-76
2023/02/24 06:18:32;;;;;;;13.07;3.00;;;2.00;99.90;;;;;;5029573;28;20044;-77
2023/02/24 06:21:01;;;;;;;17.27;5.37;;;2.00;99.90;;;;;;5028576;28;20395;-76
2023/02/24 06:23:27;;;;;;;12.13;3.57;;;2.00;99.90;;;;;;5026315;28;20040;-76
2023/02/24 06:25:56;;;;;;;15.57;3.93;;;2.00;99.90;;;;;;5012727;28;20480;-76
2023/02/24 06:28:24;;;;;;;12.07;3.53;;;2.00;99.90;;;;;;5025819;28;20029;-76
2023/02/24 06:30:50;;;;;;;12.60;3.20;;;2.10;99.90;;;;;;5015543;28;20332;-76
2023/02/24 06:33:17;;;;;;;8.00;2.93;;;2.10;99.90;;;;;;5030124;28;20060;-77
2023/02/24 06:35:43;;;;;;;16.33;3.10;;;2.10;99.90;;;;;;4999354;28;20388;-76
2023/02/24 06:38:10;;;;;;;10.60;3.10;;;2.10;99.90;;;;;;4995952;28;20055;-77
2023/02/24 06:40:36;;;;;;;10.80;3.53;;;2.10;99.90;;;;;;5018648;28;20036;-77
2023/02/24 06:43:02;;;;;;;16.13;3.97;;;2.20;99.90;;;;;;5031472;28;20041;-76
2023/02/24 06:45:30;;;;;;;13.13;3.23;;;2.20;99.90;;;;;;5017211;28;20519;-76
2023/02/24 06:47:57;;;;;;;12.10;3.50;;;2.20;99.90;;;;;;5029892;28;20649;-76
2023/02/24 06:50:23;;;;;;;11.07;3.80;;;2.30;99.90;;;;;;5015055;28;20036;-76
2023/02/24 06:52:53;;;;;;;15.70;3.00;;;2.30;99.90;;;;;;5030645;28;20380;-77
2023/02/24 06:55:26;;;;;;;13.27;2.80;;;2.30;99.90;;;;;;5014774;28;20447;-77
2023/02/24 06:58:03;;;;;;;13.55;4.13;;;2.40;99.90;;;;;;5014233;28;20491;-76
2023/02/24 07:00:38;;;;;;;11.07;3.73;;;2.40;99.90;;;;;;5015069;28;20025;-76
2023/02/24 07:03:37;;;;;;;18.60;4.10;;;2.40;99.90;;;;;;5028944;28;20463;-76
2023/02/24 07:06:24;;;;;;;12.53;4.23;;;2.50;99.90;;;;;;5014529;28;20033;-77
2023/02/24 07:08:53;;;;;;;9.60;3.40;;;2.50;99.90;;;;;;5027475;28;20036;-77
2023/02/24 07:11:20;;;;;;;12.53;4.40;;;2.60;99.90;;;;;;5032422;28;21176;-77
2023/02/24 07:13:48;;;;;;;13.50;3.63;;;2.60;99.90;;;;;;5030045;28;20029;-77
2023/02/24 07:16:16;;;;;;;14.17;3.97;;;2.60;99.90;;;;;;5013799;28;20037;-77
2023/02/24 07:18:47;;;;;;;9.10;4.07;;;2.60;99.90;;;;;;5012793;28;20036;-77
2023/02/24 07:21:15;;;;;;;12.83;3.53;;;2.70;99.90;;;;;;5014662;28;20045;-77
2023/02/24 07:23:44;;;;;;;11.27;3.33;;;2.70;99.90;;;;;;5028920;28;20033;-77
2023/02/24 07:26:17;;;;;;;11.93;3.63;;;2.80;99.90;;;;;;5016309;28;20117;-77
2023/02/24 07:28:44;;;;;;;;;;;2.80;99.90;;;;;;5028375;28;20033;-77
2023/02/24 07:31:12;;;;;;;13.63;4.03;;;2.80;99.90;;;;;;5032158;28;19917;-77
2023/02/24 07:33:42;;;;;;;13.63;3.63;;;2.80;99.90;;;;;;5029860;28;20037;-77
2023/02/24 07:36:17;;;;;;;10.57;3.73;;;2.90;99.90;;;;;;5016185;28;20040;-78
2023/02/24 07:38:44;;;;;;;13.40;4.10;;;3.00;99.90;;;;;;5029236;28;20037;-77
2023/02/24 07:41:14;;;;;;;19.50;4.20;;;3.00;99.90;;;;;;5014894;28;20044;-77
2023/02/24 07:43:42;;;;;;;15.00;3.50;;;3.10;99.90;;;;;;5029481;28;20368;-76
2023/02/24 07:46:14;;;;;;;17.17;3.67;;;3.10;99.90;;;;;;5013306;28;20037;-77
2023/02/24 07:48:41;;;;;;;14.00;3.40;;;3.10;99.90;;;;;;5026814;28;21345;-76
2023/02/24 07:51:15;;;;;;;16.30;3.37;;;3.20;99.90;;;;;;5013467;28;20033;-77
2023/02/24 07:53:42;;;;;;;12.68;2.40;;;3.20;99.90;;;;;;5030410;28;20355;-77
2023/02/24 07:56:16;;;;;;;9.73;2.17;;;3.20;99.90;;;;;;5030434;28;20033;-78
2023/02/24 07:58:43;;;;;;;13.00;2.73;;;3.30;99.90;;;;;;5009573;28;20040;-77
2023/02/24 08:01:21;;;;;;;11.47;3.00;;;3.30;99.90;;;;;;5031674;28;20049;-78
2023/02/24 08:03:54;;;;;;;15.40;4.23;;;3.40;99.90;;;;;;5013333;28;20052;-78
2023/02/24 08:06:36;;;;;;;13.87;3.13;;;3.40;99.90;;;;;;5014627;28;20047;-77
2023/02/24 08:09:18;;;;;;;10.73;3.27;;;3.40;99.90;;;;;;5011724;28;20472;-77
2023/02/24 08:11:51;;;;;;;9.93;2.17;;;3.40;99.90;;;;;;4997383;28;20056;-77
2023/02/24 08:14:18;;;;;;;11.73;2.53;;;3.50;99.90;;;;;;4995872;28;20052;-77
2023/02/24 08:16:47;;;;;;;11.73;2.90;;;3.50;99.90;;;;;;4999907;28;20487;-78
2023/02/24 08:19:19;;;;;;;10.27;3.03;;;3.60;99.90;;;;;;5011977;28;20473;-78
2023/02/24 08:21:49;;;;;;;12.93;4.20;;;3.60;99.90;;;;;;5030101;28;20029;-78
2023/02/24 08:24:17;;;;;;;13.07;3.43;;;3.70;99.90;;;;;;5012263;28;20041;-78
2023/02/24 08:26:45;;;;;;;10.80;2.58;;;3.70;99.90;;;;;;5027342;28;23339;-77
2023/02/24 08:29:12;;;;;;;18.03;3.53;;;3.70;99.90;;;;;;5024917;28;20044;-78
2023/02/24 08:31:38;;;;;;;11.47;2.27;;;3.80;99.90;;;;;;5011621;28;20044;-77
2023/02/24 08:34:04;;;;;;;8.03;1.33;;;3.80;99.90;;;;;;5025397;28;20067;-80
2023/02/24 08:36:30;;;;;;;11.32;3.42;;;3.80;99.90;;;;;;5012747;28;20048;-80
2023/02/24 08:38:58;;;;;;;10.82;2.53;;;3.90;99.90;;;;;;5025501;28;20021;-79
2023/02/24 08:41:43;;;;;;;17.30;3.60;;;3.90;99.90;;;;;;5027734;28;20041;-78
2023/02/24 08:44:11;;;;;;;8.77;2.87;;;3.90;99.90;;;;;;5012519;28;20049;-79
2023/02/24 08:50:35;;;;;;;13.43;3.93;;;4.00;99.90;;;;;;5020862;28;20041;-88
2023/02/24 08:54:08;;;;;;;;;;;;;;;;;;;;;
2023/02/24 08:57:13;;;;;;;12.73;3.25;;;4.10;99.90;;;;;;4987111;28;20485;-78
2023/02/24 08:59:48;;;;;;;11.60;2.70;;;4.10;99.90;;;;;;5007060;28;20037;-77
2023/02/24 09:02:26;;;;;;;12.00;3.33;;;4.10;99.90;;;;;;5010457;28;20052;-78
2023/02/24 09:05:02;;;;;;;15.85;3.35;;;4.20;99.90;;;;;;5011010;28;20064;-79
2023/02/24 09:07:36;;;;;;;10.55;2.58;;;4.20;99.90;;;;;;4994002;28;20136;-79
2023/02/24 09:10:10;;;;;;;13.65;2.20;;;4.10;99.90;;;;;;4993795;28;20040;-80
2023/02/24 09:12:40;;;;;;;21.00;3.45;;;4.20;99.90;;;;;;5022947;28;20088;-79
2023/02/24 09:15:08;;;;;;;13.68;2.83;;;4.10;99.90;;;;;;4986332;28;20055;-80
2023/02/24 09:23:18;;;;;;;10.73;2.97;;;4.20;99.90;;;;;;5003045;28;20037;-80
2023/02/24 09:25:49;;;;;;;9.55;2.33;;;4.20;99.90;;;;;;5029293;28;20045;-80
2023/02/24 09:28:23;;;;;;;17.77;2.80;;;4.20;99.90;;;;;;5024800;28;20044;-80
2023/02/24 09:30:52;;;;;;;10.23;1.73;;;4.20;99.90;;;;;;4994111;28;21280;-80
2023/02/24 09:33:40;;;;;;;11.07;2.75;;;4.30;99.90;;;;;;5009668;28;20025;-80
2023/02/24 09:36:09;;;;;;;9.80;2.08;;;4.30;99.90;;;;;;5025921;28;20048;-81
2023/02/24 09:41:30;;;;;;;8.45;1.80;;;4.40;99.90;;;;;;5027655;28;20044;-80
2023/02/24 09:44:18;;;;;;;11.48;2.92;;;4.50;99.90;;;;;;5010309;28;20037;-81
2023/02/24 09:46:53;;;;;;;10.43;2.70;;;4.50;99.90;;;;;;4999201;28;20458;-80
2023/02/24 09:49:25;;;;;;;13.77;2.20;;;4.60;99.90;;;;;;5028831;28;20388;-78
2023/02/24 09:52:07;;;;;;;14.50;2.58;;;4.70;99.90;;;;;;5029595;28;20075;-76
2023/02/24 09:54:36;;;;;;;9.55;2.17;;;4.90;99.90;;;;;;5025685;28;20032;-77
2023/02/24 09:57:15;;;;;;;15.68;2.72;;;5.00;99.90;;;;;;5029251;28;20052;-80
2023/02/24 10:00:23;;;;;;;15.43;2.60;;;5.10;99.90;;;;;;4989657;28;20049;-77
2023/02/24 10:03:40;;;;;;;13.98;3.00;;;5.10;99.90;;;;;;5008202;28;20132;-77
2023/02/24 10:06:34;;;;;;;12.55;2.88;;;5.10;99.90;;;;;;5028497;28;20041;-79
2023/02/24 10:09:37;;;;;;;15.27;4.18;;;5.20;99.90;;;;;;5025358;28;20044;-77
2023/02/24 10:12:03;;;;;;;;;;;5.20;99.90;;;;;;5029364;28;20033;-78
2023/02/24 10:14:51;;;;;;;18.58;4.22;;;5.20;99.90;;;;;;5022878;28;20488;-78
2023/02/24 10:17:23;;;;;;;20.40;5.53;;;5.20;99.90;;;;;;5027735;28;20037;-77
2023/02/24 10:19:55;;;;;;;11.52;3.60;;;5.20;99.90;;;;;;5008229;28;20059;-79
2023/02/24 10:22:39;;;;;;;11.55;2.30;;;5.20;99.90;;;;;;4994739;28;20049;-79
2023/02/24 10:25:34;;;;;;;13.50;2.75;;;5.20;99.90;;;;;;5027603;28;20048;-78
2023/02/24 10:28:01;;;;;;;18.23;3.05;;;5.30;99.90;;;;;;4992619;28;20045;-79
2023/02/24 10:31:02;;;;;;;12.18;3.20;;;5.30;99.90;;;;;;5010618;28;20024;-78
2023/02/24 10:33:45;;;;;;;16.40;4.28;;;5.40;99.90;;;;;;5001923;28;20075;-78
2023/02/24 10:36:17;;;;;;;19.35;4.70;;;5.40;99.90;;;;;;5012033;28;20060;-78
2023/02/24 10:38:44;;;;;;;12.57;2.83;;;5.40;99.90;;;;;;5006640;28;20068;-76
2023/02/24 10:41:13;;;;;;;11.50;3.55;;;5.40;99.90;;;;;;5025311;28;20491;-78
2023/02/24 10:43:45;;;;;;;23.63;5.60;;;5.40;99.90;;;;;;5024979;28;20507;-77
2023/02/24 10:46:25;;;;;;;9.70;2.75;;;5.40;99.90;;;;;;5027185;28;20493;-78
2023/02/24 10:49:08;;;;;;;16.33;4.75;;;5.40;99.90;;;;;;5025877;28;20028;-80
2023/02/24 10:51:40;;;;;;;20.40;4.88;;;5.40;99.90;;;;;;5016848;28;20033;-78
2023/02/24 10:54:32;;;;;;;16.42;3.75;;;5.40;99.90;;;;;;5011359;28;20029;-81
2023/02/24 10:57:14;;;;;;;14.93;4.13;;;5.40;99.90;;;;;;5014251;28;20503;-79
2023/02/24 11:00:19;;;;;;;10.70;5.00;;;5.50;99.90;;;;;;5025365;28;20033;-76
2023/02/24 11:03:13;;;;;;;;;;;5.50;99.90;;;;;;5027732;28;20029;-81
2023/02/24 11:05:55;;;;;;;15.43;5.65;;;5.50;99.90;;;;;;5011588;28;19935;-78
2023/02/24 11:11:18;;;;;;;12.68;5.93;;;5.50;99.90;;;;;;5009568;28;20411;-77
2023/02/24 11:19:54;;;;;;;27.00;10.93;;;5.60;99.90;;;;;;5029254;28;20044;-78
2023/02/24 11:22:24;;;;;;;24.58;9.52;;;5.60;99.90;;;;;;5031768;28;20399;-77
2023/02/24 11:24:51;;;;;;;16.15;8.02;;;5.60;99.90;;;;;;5031684;28;20045;-77
2023/02/24 11:27:22;;;;;;;21.63;8.60;;;5.60;99.90;;;;;;4999253;28;20040;-76
2023/02/24 11:30:06;;;;;;;22.52;8.63;;;5.70;99.90;;;;;;5013114;28;20033;-77
2023/02/24 11:32:36;;;;;;;15.43;8.73;;;5.70;99.90;;;;;;5028922;28;20033;-77
2023/02/24 11:35:10;;;;;;;18.23;7.50;;;5.80;99.90;;;;;;5030376;28;20028;-77
2023/02/24 11:37:51;;;;;;;13.10;8.43;;;5.80;99.90;;;;;;5011857;28;20033;-77
2023/02/24 11:40:36;;;;;;;16.58;8.90;;;5.90;99.90;;;;;;5027564;28;20349;-77
2023/02/24 11:43:17;;;;;;;16.40;8.88;;;5.90;99.90;;;;;;4996412;28;20678;-76
2023/02/24 11:45:56;;;;;;;24.42;9.68;;;6.00;99.90;;;;;;5030757;28;20041;-77
2023/02/24 11:48:31;;;;;;;25.42;10.70;;;5.90;99.90;;;;;;5026389;28;20036;-76
2023/02/24 11:51:03;;;;;;;24.17;10.13;;;5.90;99.90;;;;;;5030135;28;20037;-76
2023/02/24 11:54:03;;;;;;;23.50;8.85;;;5.90;99.90;;;;;;5028050;28;20033;-76
2023/02/24 11:56:38;;;;;;;17.77;9.02;;;5.80;99.90;;;;;;5030118;28;20045;-78
2023/02/24 11:59:17;;;;;;;20.75;10.55;;;5.80;99.90;;;;;;5028294;28;20037;-78
2023/02/24 12:01:58;;;;;;;20.58;10.77;;;5.80;99.90;;;;;;5030813;28;20037;-77
2023/02/24 12:04:31;;;;;;;21.42;10.63;;;5.80;99.90;;;;;;5027966;28;20029;-78
2023/02/24 12:07:17;;;;;;;;;;;5.80;99.90;;;;;;5032672;28;20488;-77
2023/02/24 12:09:54;;;;;;;20.77;10.32;;;5.80;99.90;;;;;;5011271;28;19924;-76
2023/02/24 12:12:31;;;;;;;22.13;12.70;;;5.80;99.90;;;;;;5030065;28;20538;-78
2023/02/24 12:15:02;;;;;;;20.70;12.32;;;5.90;99.90;;;;;;5031296;28;20052;-77
2023/02/24 12:17:32;;;;;;;21.02;12.68;;;5.90;99.90;;;;;;5031093;28;20040;-77
2023/02/24 12:20:18;;;;;;;20.48;11.40;;;6.00;99.90;;;;;;5027966;28;20041;-77
2023/02/24 12:22:59;;;;;;;21.55;12.80;;;6.00;99.90;;;;;;5030501;28;20044;-77
2023/02/24 12:25:45;;;;;;;20.58;11.88;;;6.10;99.90;;;;;;5017917;28;20416;-77
2023/02/24 12:28:24;;;;;;;16.90;11.60;;;6.10;99.90;;;;;;5010569;28;20040;-77
2023/02/24 12:31:01;;;;;;;17.67;12.02;;;6.20;99.90;;;;;;5013144;28;20041;-77
2023/02/24 12:33:51;;;;;;;17.75;12.25;;;6.20;99.90;;;;;;5027843;28;20484;-78
2023/02/24 12:36:19;;;;;;;18.20;12.20;;;6.30;99.90;;;;;;5029452;28;20687;-78
2023/02/24 12:38:49;;;;;;;14.52;10.07;;;6.20;99.90;;;;;;5026989;28;20041;-77
2023/02/24 12:41:15;;;;;;;16.17;11.55;;;6.20;99.90;;;;;;5013201;28;20064;-76
2023/02/24 12:44:15;;;;;;;17.23;11.20;;;6.20;99.90;;;;;;5010287;28;20760;-76
2023/02/24 12:46:45;;;;;;;13.82;9.90;;;6.20;99.90;;;;;;5030080;28;20044;-77
2023/02/24 12:49:46;;;;;;;20.70;13.43;;;6.40;99.90;;;;;;5010263;28;20048;-76
2023/02/24 12:52:25;;;;;;;20.70;13.02;;;6.40;99.90;;;;;;4999287;28;20048;-78
2023/02/24 12:55:15;;;;;;;17.92;12.93;;;6.40;99.90;;;;;;5032083;28;20722;-78
2023/02/24 12:58:12;;;;;;;15.63;12.85;;;6.40;99.90;;;;;;5013045;28;20032;-78
2023/02/24 13:01:10;;;;;;;22.30;13.68;;;6.50;99.90;;;;;;5031229;28;20041;-77
2023/02/24 13:03:48;;;;;;;22.20;14.00;;;6.70;99.90;;;;;;5028114;28;20028;-77
2023/02/24 13:06:31;;;;;;;25.60;13.85;;;7.00;99.90;;;;;;5029512;28;20040;-77
2023/02/24 13:09:02;;;;;;;22.95;13.82;;;7.50;99.90;;;;;;5008802;28;20060;-77
2023/02/24 13:11:39;;;;;;;22.63;12.98;;;7.80;99.90;;;;;;4998564;28;20515;-78
2023/02/24 13:14:20;;;;;;;23.92;11.57;;;7.90;99.90;;;;;;5000130;28;20471;-77
2023/02/24 13:16:47;;;;;;;22.90;12.25;;;7.90;99.90;;;;;;4998106;28;20033;-76
2023/02/24 13:19:25;;;;;;;22.83;11.75;;;7.90;99.90;;;;;;5025861;28;20033;-76
2023/02/24 13:22:10;;;;;;;19.58;12.30;;;8.10;99.90;;;;;;5014131;28;20033;-76
2023/02/24 13:24:53;;;;;;;20.08;11.65;;;8.30;99.90;;;;;;5010728;28;20045;-76
2023/02/24 13:27:25;;;;;;;19.15;10.77;;;8.40;99.90;;;;;;4997455;28;20052;-76
2023/02/24 13:29:55;;;;;;;17.90;11.25;;;8.60;99.90;;;;;;5025428;28;20620;-76
2023/02/24 13:32:24;;;;;;;17.17;9.65;;;8.60;99.90;;;;;;5011160;28;20044;-76
2023/02/24 13:34:50;;;;;;;24.23;11.57;;;8.70;99.90;;;;;;5030107;28;20032;-76
2023/02/24 13:37:46;;;;;;;23.63;10.77;;;8.80;99.90;;;;;;5028541;28;20056;-76
2023/02/24 13:40:22;;;;;;;16.95;10.13;;;8.70;99.90;;;;;;5015687;28;20051;-76
2023/02/24 13:42:56;;;;;;;21.55;10.25;;;8.70;99.90;;;;;;4993583;28;20055;-75
2023/02/24 13:45:38;;;;;;;21.70;8.80;;;8.60;99.90;;;;;;4998725;28;20284;-76
2023/02/24 13:48:36;;;;;;;21.85;8.38;;;8.50;99.90;;;;;;5026324;28;20567;-76
2023/02/24 13:51:40;;;;;;;26.65;8.52;;;8.40;99.90;;;;;;5011596;28;20032;-75
2023/02/24 13:54:37;;;;;;;17.17;8.52;;;8.20;99.90;;;;;;5009790;28;20032;-75
2023/02/24 13:57:22;;;;;;;25.40;7.50;;;8.20;99.90;;;;;;5029928;28;20037;-75